createdAt,value
2023-02-03T00:01:43.947Z,11.60
2023-02-03T00:06:46.347Z,11.60
2023-02-03T00:11:48.370Z,11.50
2023-02-03T00:16:50.430Z,11.50
2023-02-03T00:21:52.476Z,13.20
2023-02-03T00:26:54.578Z,11.50
2023-02-03T00:31:59.079Z,11.40
2023-02-03T00:37:01.946Z,11.40
2023-02-03T00:47:06.424Z,11.50
2023-02-03T00:52:08.502Z,11.30
2023-02-03T00:57:10.846Z,11.30
2023-02-03T01:02:14.751Z,11.20
2023-02-03T01:07:16.917Z,11.10
2023-02-03T01:17:21.319Z,11.50
2023-02-03T01:22:23.424Z,11.30
2023-02-03T01:27:25.454Z,11.30
2023-02-03T01:32:27.910Z,11.40
2023-02-03T01:37:29.988Z,11.40
2023-02-03T01:42:32.652Z,11.40
2023-02-03T01:47:36.671Z,11.30
2023-02-03T01:52:40.407Z,11.30
2023-02-03T01:58:02.616Z,10.90
2023-02-03T02:03:05.941Z,11.40
2023-02-03T02:08:09.054Z,11.50
2023-02-03T02:13:12.545Z,11.40
2023-02-03T02:18:14.627Z,11.40
2023-02-03T02:23:16.637Z,11.50
2023-02-03T02:28:37.158Z,11.50
2023-02-03T02:33:54.532Z,11.50
2023-02-03T02:39:02.643Z,11.50
2023-02-03T02:44:12.233Z,11.50
2023-02-03T02:49:35.221Z,11.50
2023-02-03T02:54:39.254Z,11.50
2023-02-03T02:59:42.569Z,11.50
2023-02-03T03:04:46.808Z,11.70
2023-02-03T03:09:52.464Z,11.50
2023-02-03T03:15:01.731Z,11.50
2023-02-03T03:25:12.397Z,11.50
2023-02-03T03:30:17.111Z,11.50
2023-02-03T03:35:19.733Z,11.30
2023-02-03T03:40:24.325Z,11.60
2023-02-03T03:45:35.970Z,11.60
2023-02-03T03:50:41.253Z,11.50
2023-02-03T03:55:44.833Z,11.50
2023-02-03T04:00:47.417Z,11.50
2023-02-03T04:05:49.597Z,11.50
2023-02-03T04:10:51.667Z,11.40
2023-02-03T04:15:53.822Z,11.50
2023-02-03T04:20:55.875Z,11.60
2023-02-03T04:26:00.698Z,11.50
2023-02-03T04:31:02.780Z,11.50
2023-02-03T04:36:04.906Z,11.50
2023-02-03T04:41:06.931Z,11.70
2023-02-03T04:46:10.233Z,11.50
2023-02-03T04:51:12.260Z,11.50
2023-02-03T04:56:15.957Z,11.50
2023-02-03T05:06:28.652Z,11.60
2023-02-03T05:11:30.800Z,11.60
2023-02-03T05:16:32.974Z,11.60
2023-02-03T05:21:35.020Z,11.60
2023-02-03T05:26:37.059Z,11.60
2023-02-03T05:31:39.212Z,11.60
2023-02-03T05:36:41.332Z,11.60
2023-02-03T05:41:52.369Z,11.50
2023-02-03T05:46:55.728Z,11.80
2023-02-03T05:51:57.721Z,11.60
2023-02-03T05:56:59.716Z,11.60
2023-02-03T06:02:01.809Z,11.60
2023-02-03T06:07:03.851Z,11.60
2023-02-03T06:12:06.031Z,11.60
2023-02-03T06:17:08.512Z,11.60
2023-02-03T06:22:10.473Z,11.60
2023-02-03T06:27:12.439Z,11.60
2023-02-03T06:32:14.453Z,11.70
2023-02-03T06:37:16.492Z,11.80
2023-02-03T06:42:18.586Z,11.60
2023-02-03T06:47:20.595Z,11.60
2023-02-03T06:52:22.663Z,11.60
2023-02-03T06:57:24.693Z,11.60
2023-02-03T07:02:26.836Z,11.50
2023-02-03T07:07:30.237Z,11.50
2023-02-03T07:12:32.274Z,11.50
2023-02-03T07:17:34.248Z,11.30
2023-02-03T07:22:36.518Z,11.50
2023-02-03T07:27:38.548Z,11.50
2023-02-03T07:32:40.626Z,11.50
2023-02-03T07:37:43.267Z,11.50
2023-02-03T07:42:46.810Z,11.50
2023-02-03T07:47:48.808Z,11.50
2023-02-03T07:52:51.993Z,11.60
2023-02-03T08:02:56.656Z,11.60
2023-02-03T08:07:59.461Z,11.50
2023-02-03T08:13:01.493Z,11.70
2023-02-03T08:18:03.586Z,11.70
2023-02-03T08:23:05.677Z,11.90
2023-02-03T08:28:07.795Z,11.80
2023-02-03T08:33:09.919Z,11.80
2023-02-03T08:38:11.873Z,11.80
2023-02-03T08:43:13.919Z,11.80
2023-02-03T08:48:15.899Z,11.90
2023-02-03T08:53:17.952Z,11.90
2023-02-03T08:58:19.946Z,12.90
2023-02-03T09:03:22.098Z,11.90
2023-02-03T09:08:24.118Z,12.00
2023-02-03T09:13:26.194Z,12.00
2023-02-03T09:18:28.188Z,12.00
2023-02-03T09:23:30.494Z,12.20
2023-02-03T09:28:33.436Z,12.20
2023-02-03T09:33:35.683Z,12.20
2023-02-03T09:38:38.234Z,12.30
2023-02-03T09:43:48.697Z,12.40
2023-02-03T09:48:54.569Z,12.40
2023-02-03T09:54:03.303Z,12.40
2023-02-03T09:59:05.732Z,12.40
2023-02-03T10:04:27.795Z,12.40
2023-02-03T10:09:29.837Z,12.50
2023-02-03T10:14:52.124Z,12.80
2023-02-03T10:20:12.067Z,12.60
2023-02-03T10:25:14.039Z,12.80
2023-02-03T10:30:23.146Z,12.90
2023-02-03T10:35:28.773Z,13.00
2023-02-03T10:40:31.243Z,13.00
2023-02-03T10:45:36.309Z,13.10
2023-02-03T10:50:41.715Z,13.50
2023-02-03T10:55:45.463Z,13.00
2023-02-03T11:00:51.651Z,13.00
2023-02-03T11:06:08.990Z,13.00
2023-02-03T11:11:15.140Z,12.90
2023-02-03T11:16:20.213Z,13.00
2023-02-03T11:21:31.554Z,13.00
2023-02-03T11:26:35.957Z,13.00
2023-02-03T11:31:38.149Z,13.00
2023-02-03T11:36:40.659Z,13.00
2023-02-03T11:41:42.793Z,13.00
2023-02-03T11:46:46.837Z,12.90
2023-02-03T11:52:11.824Z,12.80
2023-02-03T11:57:13.802Z,12.80
2023-02-03T12:02:18.827Z,12.80
2023-02-03T12:07:39.448Z,12.70
2023-02-03T12:12:44.259Z,12.70
2023-02-03T12:17:52.260Z,12.70
2023-02-03T12:23:03.263Z,12.70
2023-02-03T12:28:27.347Z,12.60
2023-02-03T12:33:40.483Z,12.70
2023-02-03T12:38:45.005Z,12.70
2023-02-03T12:43:49.465Z,12.80
2023-02-03T12:48:54.270Z,12.80
2023-02-03T12:54:00.111Z,12.80
2023-02-03T12:59:05.235Z,12.70
2023-02-03T13:04:26.354Z,12.80
2023-02-03T13:09:47.155Z,12.70
2023-02-03T13:14:51.654Z,12.60
2023-02-03T13:19:59.305Z,12.40
2023-02-03T13:25:20.048Z,12.70
2023-02-03T13:30:44.374Z,12.70
2023-02-03T13:35:46.413Z,13.00
2023-02-03T13:40:58.310Z,12.80
2023-02-03T13:46:00.855Z,12.80
2023-02-03T13:51:02.922Z,12.70
2023-02-03T13:56:06.399Z,12.80
2023-02-03T14:01:29.566Z,12.70
2023-02-03T14:06:37.779Z,12.60
2023-02-03T14:11:41.197Z,12.70
2023-02-03T14:16:44.658Z,12.60
2023-02-03T14:21:54.074Z,12.60
2023-02-03T14:26:57.353Z,12.60
2023-02-03T14:32:04.212Z,12.60
2023-02-03T14:37:24.394Z,12.70
2023-02-03T14:42:32.678Z,12.60
2023-02-03T14:47:34.709Z,12.70
2023-02-03T14:52:42.936Z,12.70
2023-02-03T14:57:49.322Z,12.80
2023-02-03T15:03:06.734Z,12.70
2023-02-03T15:08:28.994Z,12.90
2023-02-03T15:13:31.644Z,12.70
2023-02-03T15:18:37.586Z,12.70
2023-02-03T15:23:43.077Z,12.70
2023-02-03T15:28:53.690Z,12.60
2023-02-03T15:33:57.732Z,12.50
2023-02-03T15:39:09.781Z,12.60
2023-02-03T15:44:24.225Z,12.60
2023-02-03T15:49:46.588Z,12.60
2023-02-03T15:54:53.550Z,12.50
2023-02-03T15:59:57.551Z,12.50
2023-02-03T16:05:04.289Z,12.40
2023-02-03T16:10:06.406Z,12.40
2023-02-03T16:15:21.127Z,12.40
2023-02-03T16:20:24.477Z,12.40
2023-02-03T16:25:28.080Z,12.30
2023-02-03T16:30:48.693Z,12.30
2023-02-03T16:36:09.382Z,12.40
2023-02-03T16:46:51.001Z,12.30
2023-02-03T16:51:53.151Z,12.30
2023-02-03T16:56:58.439Z,12.20
2023-02-03T17:02:01.150Z,12.40
2023-02-03T17:07:05.258Z,12.40
2023-02-03T17:12:07.368Z,12.40
2023-02-03T17:17:09.414Z,12.30
2023-02-03T17:22:11.394Z,12.40
2023-02-03T17:27:13.457Z,12.40
2023-02-03T17:32:17.386Z,12.40
2023-02-03T17:37:19.431Z,12.40
2023-02-03T17:58:07.521Z,12.30
2023-02-03T18:03:09.504Z,12.30
2023-02-03T18:08:16.471Z,12.30
2023-02-03T18:13:18.852Z,12.20
2023-02-03T18:18:21.373Z,12.20
2023-02-03T18:23:23.416Z,12.20
2023-02-03T18:28:25.535Z,12.20
2023-02-03T18:33:28.810Z,12.20
2023-02-03T18:38:33.254Z,12.20
2023-02-03T18:43:35.584Z,12.10
2023-02-03T18:48:37.668Z,12.10
2023-02-03T18:53:39.899Z,12.10
2023-02-03T18:58:42.323Z,12.20
2023-02-03T19:03:44.374Z,12.20
2023-02-03T19:08:46.804Z,12.30
2023-02-03T19:13:48.948Z,12.30
2023-02-03T19:18:51.093Z,12.30
2023-02-03T19:23:53.123Z,12.50
2023-02-03T19:28:56.120Z,12.30
2023-02-03T19:33:59.714Z,12.50
2023-02-03T19:39:01.827Z,12.50
2023-02-03T19:44:05.712Z,12.60
2023-02-03T19:49:12.074Z,12.50
2023-02-03T19:54:15.511Z,12.50
2023-02-03T19:59:17.683Z,12.50
2023-02-03T20:04:19.784Z,12.50
2023-02-03T20:09:21.847Z,12.40
2023-02-03T20:14:23.903Z,12.60
2023-02-03T20:19:26.150Z,12.60
2023-02-03T20:24:28.241Z,12.70
2023-02-03T20:29:30.315Z,12.60
2023-02-03T20:34:32.710Z,12.60
2023-02-03T20:39:35.182Z,12.60
2023-02-03T20:44:37.166Z,12.70
2023-02-03T20:49:39.309Z,12.60
2023-02-03T20:54:41.681Z,12.60
2023-02-03T20:59:46.720Z,12.60
2023-02-03T21:04:58.807Z,12.60
2023-02-03T21:10:02.576Z,12.60
2023-02-03T21:15:17.085Z,12.90
2023-02-03T21:20:23.658Z,12.60
2023-02-03T21:25:27.324Z,12.60
2023-02-03T21:30:32.889Z,12.70
2023-02-03T21:35:39.209Z,12.70
2023-02-03T21:40:41.195Z,12.70
2023-02-03T21:45:43.720Z,12.70
2023-02-03T21:50:45.894Z,12.80
2023-02-03T21:55:47.958Z,12.70
2023-02-03T22:00:51.057Z,12.30
2023-02-03T22:06:09.484Z,12.70
2023-02-03T22:11:11.711Z,12.70
2023-02-03T22:16:15.102Z,12.60
2023-02-03T22:21:17.849Z,12.60
2023-02-03T22:26:19.973Z,12.70
2023-02-03T22:31:22.391Z,12.60
2023-02-03T22:36:25.745Z,13.00
2023-02-03T22:41:27.814Z,12.50
2023-02-03T22:46:29.920Z,12.50
2023-02-03T22:51:31.957Z,12.60
2023-02-03T22:56:34.024Z,12.60
2023-02-03T23:01:36.094Z,12.60
2023-02-03T23:06:38.118Z,12.70
2023-02-03T23:11:40.217Z,12.60
2023-02-03T23:16:42.542Z,12.70
2023-02-03T23:21:44.609Z,12.70
2023-02-03T23:26:46.719Z,12.70
2023-02-03T23:31:48.949Z,12.80
2023-02-03T23:36:51.218Z,12.80
2023-02-03T23:41:53.301Z,12.80
2023-02-03T23:46:55.328Z,13.00
2023-02-03T23:51:57.462Z,12.90
2023-02-03T23:56:59.443Z,12.90
